sensor_id;sensor_type;location;lat;lon;timestamp;P1;durP1;ratioP1;P2;durP2;ratioP2
6531;SDS011;3299;42.004;24.868;2023-10-19T00:00:46;4.03;;;2.40;;
6531;SDS011;3299;42.004;24.868;2023-10-19T00:03:16;2.88;;;2.67;;
6531;SDS011;3299;42.004;24.868;2023-10-19T00:05:43;2.70;;;2.50;;
6531;SDS011;3299;42.004;24.868;2023-10-19T00:08:15;3.92;;;2.72;;
6531;SDS011;3299;42.004;24.868;2023-10-19T00:10:45;2.50;;;2.40;;
6531;SDS011;3299;42.004;24.868;2023-10-19T00:13:13;3.13;;;2.65;;
6531;SDS011;3299;42.004;24.868;2023-10-19T00:15:40;2.90;;;2.70;;
6531;SDS011;3299;42.004;24.868;2023-10-19T00:18:13;2.88;;;2.67;;
6531;SDS011;3299;42.004;24.868;2023-10-19T00:20:42;3.92;;;2.78;;
6531;SDS011;3299;42.004;24.868;2023-10-19T00:23:19;2.70;;;2.50;;
6531;SDS011;3299;42.004;24.868;2023-10-19T00:25:57;3.03;;;2.83;;
6531;SDS011;3299;42.004;24.868;2023-10-19T00:28:24;2.65;;;2.45;;
6531;SDS011;3299;42.004;24.868;2023-10-19T00:30:51;2.40;;;2.30;;
6531;SDS011;3299;42.004;24.868;2023-10-19T00:33:18;2.78;;;2.58;;
6531;SDS011;3299;42.004;24.868;2023-10-19T00:35:47;2.63;;;2.42;;
6531;SDS011;3299;42.004;24.868;2023-10-19T00:38:26;2.58;;;2.47;;
6531;SDS011;3299;42.004;24.868;2023-10-19T00:40:53;2.80;;;2.60;;
6531;SDS011;3299;42.004;24.868;2023-10-19T00:43:27;2.70;;;2.50;;
6531;SDS011;3299;42.004;24.868;2023-10-19T00:45:54;2.70;;;2.42;;
6531;SDS011;3299;42.004;24.868;2023-10-19T00:48:19;4.13;;;3.17;;
6531;SDS011;3299;42.004;24.868;2023-10-19T00:50:51;3.47;;;3.17;;
6531;SDS011;3299;42.004;24.868;2023-10-19T00:53:20;3.28;;;3.08;;
6531;SDS011;3299;42.004;24.868;2023-10-19T00:55:47;3.33;;;3.03;;
6531;SDS011;3299;42.004;24.868;2023-10-19T00:58:13;5.65;;;2.97;;
6531;SDS011;3299;42.004;24.868;2023-10-19T01:00:43;3.78;;;2.95;;
6531;SDS011;3299;42.004;24.868;2023-10-19T01:03:10;4.93;;;3.22;;
6531;SDS011;3299;42.004;24.868;2023-10-19T01:05:39;2.13;;;2.03;;
6531;SDS011;3299;42.004;24.868;2023-10-19T01:08:04;2.05;;;1.95;;
6531;SDS011;3299;42.004;24.868;2023-10-19T01:10:48;2.13;;;1.52;;
6531;SDS011;3299;42.004;24.868;2023-10-19T01:13:17;2.17;;;1.67;;
6531;SDS011;3299;42.004;24.868;2023-10-19T01:15:44;2.00;;;1.90;;
6531;SDS011;3299;42.004;24.868;2023-10-19T01:18:14;3.25;;;2.35;;
6531;SDS011;3299;42.004;24.868;2023-10-19T01:20:41;2.30;;;2.13;;
6531;SDS011;3299;42.004;24.868;2023-10-19T01:23:16;2.42;;;2.33;;
6531;SDS011;3299;42.004;24.868;2023-10-19T01:26:07;2.45;;;2.28;;
6531;SDS011;3299;42.004;24.868;2023-10-19T01:28:34;2.50;;;2.30;;
6531;SDS011;3299;42.004;24.868;2023-10-19T01:31:11;2.75;;;2.55;;
6531;SDS011;3299;42.004;24.868;2023-10-19T01:33:42;2.58;;;2.47;;
6531;SDS011;3299;42.004;24.868;2023-10-19T01:36:09;3.03;;;2.70;;
6531;SDS011;3299;42.004;24.868;2023-10-19T01:38:47;2.80;;;2.50;;
6531;SDS011;3299;42.004;24.868;2023-10-19T01:41:13;2.72;;;2.53;;
6531;SDS011;3299;42.004;24.868;2023-10-19T01:43:40;2.28;;;2.08;;
6531;SDS011;3299;42.004;24.868;2023-10-19T01:46:08;2.70;;;2.50;;
6531;SDS011;3299;42.004;24.868;2023-10-19T01:48:40;2.40;;;2.20;;
6531;SDS011;3299;42.004;24.868;2023-10-19T01:51:07;2.58;;;2.38;;
6531;SDS011;3299;42.004;24.868;2023-10-19T01:53:38;3.00;;;2.70;;
6531;SDS011;3299;42.004;24.868;2023-10-19T01:56:08;2.47;;;2.38;;
6531;SDS011;3299;42.004;24.868;2023-10-19T01:58:38;2.38;;;2.28;;
6531;SDS011;3299;42.004;24.868;2023-10-19T02:01:04;2.95;;;2.75;;
6531;SDS011;3299;42.004;24.868;2023-10-19T02:03:41;2.67;;;2.47;;
6531;SDS011;3299;42.004;24.868;2023-10-19T02:06:11;1.98;;;1.88;;
6531;SDS011;3299;42.004;24.868;2023-10-19T02:11:26;1.67;;;1.55;;
6531;SDS011;3299;42.004;24.868;2023-10-19T02:13:55;1.58;;;1.48;;
6531;SDS011;3299;42.004;24.868;2023-10-19T02:16:24;1.73;;;1.63;;
6531;SDS011;3299;42.004;24.868;2023-10-19T02:18:51;2.28;;;2.15;;
6531;SDS011;3299;42.004;24.868;2023-10-19T02:21:17;1.70;;;1.60;;
6531;SDS011;3299;42.004;24.868;2023-10-19T02:23:54;2.15;;;2.05;;
6531;SDS011;3299;42.004;24.868;2023-10-19T02:26:20;2.50;;;2.30;;
6531;SDS011;3299;42.004;24.868;2023-10-19T02:28:48;1.83;;;1.73;;
6531;SDS011;3299;42.004;24.868;2023-10-19T02:31:16;2.75;;;1.60;;
6531;SDS011;3299;42.004;24.868;2023-10-19T02:33:50;2.72;;;1.77;;
6531;SDS011;3299;42.004;24.868;2023-10-19T02:36:28;4.30;;;1.90;;
6531;SDS011;3299;42.004;24.868;2023-10-19T02:38:56;1.70;;;1.60;;
6531;SDS011;3299;42.004;24.868;2023-10-19T02:41:25;2.58;;;1.90;;
6531;SDS011;3299;42.004;24.868;2023-10-19T02:43:53;1.92;;;1.80;;
6531;SDS011;3299;42.004;24.868;2023-10-19T02:46:34;1.73;;;1.63;;
6531;SDS011;3299;42.004;24.868;2023-10-19T02:49:03;2.20;;;2.10;;
6531;SDS011;3299;42.004;24.868;2023-10-19T02:51:32;2.30;;;1.98;;
6531;SDS011;3299;42.004;24.868;2023-10-19T02:53:58;1.70;;;1.60;;
6531;SDS011;3299;42.004;24.868;2023-10-19T02:56:27;3.03;;;1.77;;
6531;SDS011;3299;42.004;24.868;2023-10-19T02:58:55;1.70;;;1.60;;
6531;SDS011;3299;42.004;24.868;2023-10-19T03:01:27;1.80;;;1.70;;
6531;SDS011;3299;42.004;24.868;2023-10-19T03:03:59;3.40;;;2.05;;
6531;SDS011;3299;42.004;24.868;2023-10-19T03:06:26;1.48;;;1.38;;
6531;SDS011;3299;42.004;24.868;2023-10-19T03:08:57;2.03;;;1.92;;
6531;SDS011;3299;42.004;24.868;2023-10-19T03:11:24;2.00;;;1.90;;
6531;SDS011;3299;42.004;24.868;2023-10-19T03:13:50;2.08;;;1.95;;
6531;SDS011;3299;42.004;24.868;2023-10-19T03:16:19;2.70;;;1.73;;
6531;SDS011;3299;42.004;24.868;2023-10-19T03:18:45;1.95;;;1.75;;
6531;SDS011;3299;42.004;24.868;2023-10-19T03:21:11;2.05;;;1.95;;
6531;SDS011;3299;42.004;24.868;2023-10-19T03:23:37;1.90;;;1.80;;
6531;SDS011;3299;42.004;24.868;2023-10-19T03:26:03;5.03;;;2.20;;
6531;SDS011;3299;42.004;24.868;2023-10-19T03:28:47;2.65;;;2.17;;
6531;SDS011;3299;42.004;24.868;2023-10-19T03:31:14;1.75;;;1.65;;
6531;SDS011;3299;42.004;24.868;2023-10-19T03:33:45;1.80;;;1.70;;
6531;SDS011;3299;42.004;24.868;2023-10-19T03:36:15;1.67;;;1.58;;
6531;SDS011;3299;42.004;24.868;2023-10-19T03:38:40;2.10;;;1.90;;
6531;SDS011;3299;42.004;24.868;2023-10-19T03:41:06;1.88;;;1.58;;
6531;SDS011;3299;42.004;24.868;2023-10-19T03:43:33;2.30;;;1.55;;
6531;SDS011;3299;42.004;24.868;2023-10-19T03:46:01;1.63;;;1.52;;
6531;SDS011;3299;42.004;24.868;2023-10-19T03:48:31;1.90;;;1.80;;
6531;SDS011;3299;42.004;24.868;2023-10-19T03:51:01;1.90;;;1.80;;
6531;SDS011;3299;42.004;24.868;2023-10-19T03:53:27;2.20;;;2.10;;
6531;SDS011;3299;42.004;24.868;2023-10-19T03:55:53;1.77;;;1.67;;
6531;SDS011;3299;42.004;24.868;2023-10-19T03:58:20;1.77;;;1.70;;
6531;SDS011;3299;42.004;24.868;2023-10-19T04:00:46;1.90;;;1.80;;
6531;SDS011;3299;42.004;24.868;2023-10-19T04:03:14;1.75;;;1.65;;
6531;SDS011;3299;42.004;24.868;2023-10-19T04:05:43;1.88;;;1.77;;
6531;SDS011;3299;42.004;24.868;2023-10-19T04:08:12;2.22;;;2.03;;
6531;SDS011;3299;42.004;24.868;2023-10-19T04:10:39;1.83;;;1.70;;
6531;SDS011;3299;42.004;24.868;2023-10-19T04:13:30;1.85;;;1.75;;
6531;SDS011;3299;42.004;24.868;2023-10-19T04:15:56;2.00;;;1.90;;
6531;SDS011;3299;42.004;24.868;2023-10-19T04:18:21;3.75;;;3.55;;
6531;SDS011;3299;42.004;24.868;2023-10-19T04:20:50;1.98;;;1.88;;
6531;SDS011;3299;42.004;24.868;2023-10-19T04:23:16;3.20;;;2.00;;
6531;SDS011;3299;42.004;24.868;2023-10-19T04:25:41;2.08;;;1.98;;
6531;SDS011;3299;42.004;24.868;2023-10-19T04:28:07;1.60;;;1.50;;
6531;SDS011;3299;42.004;24.868;2023-10-19T04:30:32;1.90;;;1.80;;
6531;SDS011;3299;42.004;24.868;2023-10-19T04:33:02;2.08;;;1.98;;
6531;SDS011;3299;42.004;24.868;2023-10-19T04:35:27;2.28;;;1.88;;
6531;SDS011;3299;42.004;24.868;2023-10-19T04:37:59;2.10;;;1.42;;
6531;SDS011;3299;42.004;24.868;2023-10-19T04:40:24;1.85;;;1.75;;
6531;SDS011;3299;42.004;24.868;2023-10-19T04:42:51;1.70;;;1.60;;
6531;SDS011;3299;42.004;24.868;2023-10-19T04:45:17;2.03;;;1.83;;
6531;SDS011;3299;42.004;24.868;2023-10-19T04:47:43;1.63;;;1.52;;
6531;SDS011;3299;42.004;24.868;2023-10-19T04:50:08;1.88;;;1.77;;
6531;SDS011;3299;42.004;24.868;2023-10-19T04:52:37;2.40;;;1.70;;
6531;SDS011;3299;42.004;24.868;2023-10-19T04:55:03;3.03;;;1.75;;
6531;SDS011;3299;42.004;24.868;2023-10-19T04:57:29;2.15;;;1.77;;
6531;SDS011;3299;42.004;24.868;2023-10-19T04:59:56;2.70;;;2.00;;
6531;SDS011;3299;42.004;24.868;2023-10-19T05:02:22;2.35;;;2.20;;
6531;SDS011;3299;42.004;24.868;2023-10-19T05:04:47;1.90;;;1.80;;
6531;SDS011;3299;42.004;24.868;2023-10-19T05:07:13;2.88;;;1.90;;
6531;SDS011;3299;42.004;24.868;2023-10-19T05:09:41;2.00;;;1.90;;
6531;SDS011;3299;42.004;24.868;2023-10-19T05:12:07;3.92;;;2.00;;
6531;SDS011;3299;42.004;24.868;2023-10-19T05:14:37;1.73;;;1.63;;
6531;SDS011;3299;42.004;24.868;2023-10-19T05:17:06;1.63;;;1.52;;
6531;SDS011;3299;42.004;24.868;2023-10-19T05:19:34;2.03;;;1.92;;
6531;SDS011;3299;42.004;24.868;2023-10-19T05:22:01;1.70;;;1.60;;
6531;SDS011;3299;42.004;24.868;2023-10-19T05:24:28;1.60;;;1.50;;
6531;SDS011;3299;42.004;24.868;2023-10-19T05:26:54;3.13;;;1.50;;
6531;SDS011;3299;42.004;24.868;2023-10-19T05:29:20;2.00;;;1.90;;
6531;SDS011;3299;42.004;24.868;2023-10-19T05:31:46;1.67;;;1.58;;
6531;SDS011;3299;42.004;24.868;2023-10-19T05:34:12;1.60;;;1.50;;
6531;SDS011;3299;42.004;24.868;2023-10-19T05:36:37;1.92;;;1.83;;
6531;SDS011;3299;42.004;24.868;2023-10-19T05:39:04;1.40;;;1.40;;
6531;SDS011;3299;42.004;24.868;2023-10-19T05:41:32;1.85;;;1.75;;
6531;SDS011;3299;42.004;24.868;2023-10-19T05:43:59;1.40;;;1.40;;
6531;SDS011;3299;42.004;24.868;2023-10-19T05:46:24;1.67;;;1.58;;
6531;SDS011;3299;42.004;24.868;2023-10-19T05:48:50;1.55;;;1.50;;
6531;SDS011;3299;42.004;24.868;2023-10-19T05:51:16;2.17;;;1.48;;
6531;SDS011;3299;42.004;24.868;2023-10-19T05:53:42;1.70;;;1.60;;
6531;SDS011;3299;42.004;24.868;2023-10-19T05:56:09;1.70;;;1.60;;
6531;SDS011;3299;42.004;24.868;2023-10-19T05:58:36;1.83;;;1.50;;
6531;SDS011;3299;42.004;24.868;2023-10-19T06:01:01;1.83;;;1.73;;
6531;SDS011;3299;42.004;24.868;2023-10-19T06:03:27;1.60;;;1.50;;
6531;SDS011;3299;42.004;24.868;2023-10-19T06:05:53;1.40;;;1.40;;
6531;SDS011;3299;42.004;24.868;2023-10-19T06:08:21;2.67;;;1.52;;
6531;SDS011;3299;42.004;24.868;2023-10-19T06:10:50;1.60;;;1.55;;
6531;SDS011;3299;42.004;24.868;2023-10-19T06:13:17;1.60;;;1.50;;
6531;SDS011;3299;42.004;24.868;2023-10-19T06:15:42;1.50;;;1.40;;
6531;SDS011;3299;42.004;24.868;2023-10-19T06:18:08;2.58;;;1.52;;
6531;SDS011;3299;42.004;24.868;2023-10-19T06:20:35;1.70;;;1.70;;
6531;SDS011;3299;42.004;24.868;2023-10-19T06:23:01;1.45;;;1.45;;
6531;SDS011;3299;42.004;24.868;2023-10-19T06:25:29;1.58;;;1.48;;
6531;SDS011;3299;42.004;24.868;2023-10-19T06:27:55;1.67;;;1.50;;
6531;SDS011;3299;42.004;24.868;2023-10-19T06:30:24;1.63;;;1.52;;
6531;SDS011;3299;42.004;24.868;2023-10-19T06:32:51;1.33;;;1.33;;
6531;SDS011;3299;42.004;24.868;2023-10-19T06:35:19;3.42;;;1.90;;
6531;SDS011;3299;42.004;24.868;2023-10-19T06:37:45;2.03;;;1.92;;
6531;SDS011;3299;42.004;24.868;2023-10-19T06:40:11;1.60;;;1.50;;
6531;SDS011;3299;42.004;24.868;2023-10-19T06:42:38;1.77;;;1.70;;
6531;SDS011;3299;42.004;24.868;2023-10-19T06:45:04;1.58;;;1.58;;
6531;SDS011;3299;42.004;24.868;2023-10-19T06:47:30;1.50;;;1.40;;
6531;SDS011;3299;42.004;24.868;2023-10-19T06:49:55;1.85;;;1.55;;
6531;SDS011;3299;42.004;24.868;2023-10-19T06:52:21;1.70;;;1.70;;
6531;SDS011;3299;42.004;24.868;2023-10-19T06:54:47;1.75;;;1.65;;
6531;SDS011;3299;42.004;24.868;2023-10-19T06:57:12;2.15;;;1.52;;
6531;SDS011;3299;42.004;24.868;2023-10-19T06:59:38;1.70;;;1.40;;
6531;SDS011;3299;42.004;24.868;2023-10-19T07:02:04;1.77;;;1.52;;
6531;SDS011;3299;42.004;24.868;2023-10-19T07:04:29;1.60;;;1.50;;
6531;SDS011;3299;42.004;24.868;2023-10-19T07:06:55;3.38;;;1.95;;
6531;SDS011;3299;42.004;24.868;2023-10-19T07:09:21;1.48;;;1.38;;
6531;SDS011;3299;42.004;24.868;2023-10-19T07:11:48;1.33;;;1.30;;
6531;SDS011;3299;42.004;24.868;2023-10-19T07:14:18;2.95;;;1.35;;
6531;SDS011;3299;42.004;24.868;2023-10-19T07:16:44;1.52;;;1.42;;
6531;SDS011;3299;42.004;24.868;2023-10-19T07:19:09;1.70;;;1.60;;
6531;SDS011;3299;42.004;24.868;2023-10-19T07:21:35;2.05;;;1.95;;
6531;SDS011;3299;42.004;24.868;2023-10-19T07:24:02;3.15;;;2.75;;
6531;SDS011;3299;42.004;24.868;2023-10-19T07:26:31;3.80;;;2.90;;
6531;SDS011;3299;42.004;24.868;2023-10-19T07:28:58;4.20;;;3.55;;
6531;SDS011;3299;42.004;24.868;2023-10-19T07:31:24;11.20;;;8.75;;
6531;SDS011;3299;42.004;24.868;2023-10-19T07:33:52;14.77;;;9.98;;
6531;SDS011;3299;42.004;24.868;2023-10-19T07:36:20;12.52;;;9.98;;
6531;SDS011;3299;42.004;24.868;2023-10-19T07:38:46;15.50;;;10.48;;
6531;SDS011;3299;42.004;24.868;2023-10-19T07:41:12;15.18;;;11.15;;
6531;SDS011;3299;42.004;24.868;2023-10-19T07:43:38;15.93;;;10.50;;
6531;SDS011;3299;42.004;24.868;2023-10-19T07:46:04;13.90;;;9.73;;
6531;SDS011;3299;42.004;24.868;2023-10-19T07:48:29;14.02;;;9.95;;
6531;SDS011;3299;42.004;24.868;2023-10-19T07:50:55;10.88;;;9.48;;
6531;SDS011;3299;42.004;24.868;2023-10-19T07:53:20;12.00;;;9.55;;
6531;SDS011;3299;42.004;24.868;2023-10-19T07:55:46;11.57;;;9.65;;
6531;SDS011;3299;42.004;24.868;2023-10-19T07:58:12;13.43;;;9.65;;
6531;SDS011;3299;42.004;24.868;2023-10-19T08:00:38;11.60;;;10.30;;
6531;SDS011;3299;42.004;24.868;2023-10-19T08:03:04;9.73;;;8.57;;
6531;SDS011;3299;42.004;24.868;2023-10-19T08:05:30;9.18;;;7.95;;
6531;SDS011;3299;42.004;24.868;2023-10-19T08:07:56;13.35;;;9.48;;
6531;SDS011;3299;42.004;24.868;2023-10-19T08:10:25;9.73;;;8.25;;
6531;SDS011;3299;42.004;24.868;2023-10-19T08:12:52;15.20;;;8.48;;
6531;SDS011;3299;42.004;24.868;2023-10-19T08:15:18;11.68;;;8.88;;
6531;SDS011;3299;42.004;24.868;2023-10-19T08:17:46;10.18;;;8.95;;
6531;SDS011;3299;42.004;24.868;2023-10-19T08:20:13;10.57;;;9.45;;
6531;SDS011;3299;42.004;24.868;2023-10-19T08:22:48;11.27;;;9.15;;
6531;SDS011;3299;42.004;24.868;2023-10-19T08:25:15;13.35;;;9.95;;
6531;SDS011;3299;42.004;24.868;2023-10-19T08:27:40;12.18;;;10.45;;
6531;SDS011;3299;42.004;24.868;2023-10-19T08:30:09;14.70;;;9.60;;
6531;SDS011;3299;42.004;24.868;2023-10-19T08:32:35;17.25;;;10.13;;
6531;SDS011;3299;42.004;24.868;2023-10-19T08:35:02;11.10;;;9.77;;
6531;SDS011;3299;42.004;24.868;2023-10-19T08:37:27;12.13;;;9.73;;
6531;SDS011;3299;42.004;24.868;2023-10-19T08:39:53;10.75;;;9.57;;
6531;SDS011;3299;42.004;24.868;2023-10-19T08:42:19;12.25;;;10.18;;
6531;SDS011;3299;42.004;24.868;2023-10-19T08:44:46;11.52;;;9.23;;
6531;SDS011;3299;42.004;24.868;2023-10-19T08:47:11;10.80;;;9.70;;
6531;SDS011;3299;42.004;24.868;2023-10-19T08:49:37;16.17;;;9.82;;
6531;SDS011;3299;42.004;24.868;2023-10-19T08:52:03;12.70;;;11.25;;
6531;SDS011;3299;42.004;24.868;2023-10-19T08:54:30;11.48;;;10.32;;
6531;SDS011;3299;42.004;24.868;2023-10-19T08:56:55;13.13;;;10.73;;
6531;SDS011;3299;42.004;24.868;2023-10-19T08:59:21;11.50;;;10.07;;
6531;SDS011;3299;42.004;24.868;2023-10-19T09:01:47;11.77;;;10.30;;
6531;SDS011;3299;42.004;24.868;2023-10-19T09:04:14;12.98;;;10.65;;
6531;SDS011;3299;42.004;24.868;2023-10-19T09:06:41;11.18;;;10.07;;
6531;SDS011;3299;42.004;24.868;2023-10-19T09:09:11;14.05;;;11.13;;
6531;SDS011;3299;42.004;24.868;2023-10-19T09:11:44;12.77;;;10.43;;
6531;SDS011;3299;42.004;24.868;2023-10-19T09:14:14;14.93;;;11.15;;
6531;SDS011;3299;42.004;24.868;2023-10-19T09:16:55;12.77;;;11.20;;
6531;SDS011;3299;42.004;24.868;2023-10-19T09:19:34;12.43;;;11.13;;
6531;SDS011;3299;42.004;24.868;2023-10-19T09:22:07;16.08;;;11.40;;
6531;SDS011;3299;42.004;24.868;2023-10-19T09:24:41;17.35;;;11.27;;
6531;SDS011;3299;42.004;24.868;2023-10-19T09:27:07;13.60;;;11.77;;
6531;SDS011;3299;42.004;24.868;2023-10-19T09:29:33;15.65;;;11.55;;
6531;SDS011;3299;42.004;24.868;2023-10-19T09:31:58;15.23;;;12.20;;
6531;SDS011;3299;42.004;24.868;2023-10-19T09:34:29;17.23;;;11.90;;
6531;SDS011;3299;42.004;24.868;2023-10-19T09:36:58;15.55;;;11.80;;
6531;SDS011;3299;42.004;24.868;2023-10-19T09:39:27;13.45;;;11.50;;
6531;SDS011;3299;42.004;24.868;2023-10-19T09:42:02;15.05;;;12.25;;
6531;SDS011;3299;42.004;24.868;2023-10-19T09:44:41;13.40;;;12.00;;
6531;SDS011;3299;42.004;24.868;2023-10-19T09:47:22;15.00;;;12.10;;
6531;SDS011;3299;42.004;24.868;2023-10-19T09:49:51;18.25;;;13.10;;
6531;SDS011;3299;42.004;24.868;2023-10-19T09:52:16;13.63;;;12.20;;
6531;SDS011;3299;42.004;24.868;2023-10-19T09:57:27;17.08;;;12.20;;
6531;SDS011;3299;42.004;24.868;2023-10-19T10:00:03;14.43;;;11.77;;
6531;SDS011;3299;42.004;24.868;2023-10-19T10:02:37;14.38;;;10.43;;
6531;SDS011;3299;42.004;24.868;2023-10-19T10:05:18;12.50;;;10.93;;
6531;SDS011;3299;42.004;24.868;2023-10-19T10:10:51;14.85;;;11.50;;
6531;SDS011;3299;42.004;24.868;2023-10-19T10:15:54;12.32;;;10.18;;
6531;SDS011;3299;42.004;24.868;2023-10-19T10:18:25;13.63;;;10.18;;
6531;SDS011;3299;42.004;24.868;2023-10-19T10:21:13;10.10;;;9.10;;
6531;SDS011;3299;42.004;24.868;2023-10-19T10:26:10;10.07;;;9.02;;
6531;SDS011;3299;42.004;24.868;2023-10-19T10:28:36;12.25;;;9.20;;
6531;SDS011;3299;42.004;24.868;2023-10-19T10:33:47;12.55;;;9.98;;
6531;SDS011;3299;42.004;24.868;2023-10-19T10:36:17;10.07;;;8.95;;
6531;SDS011;3299;42.004;24.868;2023-10-19T10:38:45;10.68;;;8.90;;
6531;SDS011;3299;42.004;24.868;2023-10-19T10:41:11;12.55;;;9.35;;
6531;SDS011;3299;42.004;24.868;2023-10-19T10:43:52;10.38;;;9.25;;
6531;SDS011;3299;42.004;24.868;2023-10-19T10:46:20;10.05;;;9.05;;
6531;SDS011;3299;42.004;24.868;2023-10-19T10:48:50;10.65;;;9.55;;
6531;SDS011;3299;42.004;24.868;2023-10-19T10:51:19;11.10;;;9.90;;
6531;SDS011;3299;42.004;24.868;2023-10-19T10:53:57;13.48;;;10.27;;
6531;SDS011;3299;42.004;24.868;2023-10-19T10:56:23;10.77;;;9.60;;
6531;SDS011;3299;42.004;24.868;2023-10-19T10:58:49;9.50;;;8.48;;
6531;SDS011;3299;42.004;24.868;2023-10-19T11:01:15;13.32;;;8.45;;
6531;SDS011;3299;42.004;24.868;2023-10-19T11:04:04;9.65;;;8.75;;
6531;SDS011;3299;42.004;24.868;2023-10-19T11:06:45;10.23;;;9.15;;
6531;SDS011;3299;42.004;24.868;2023-10-19T11:09:12;9.82;;;8.35;;
6531;SDS011;3299;42.004;24.868;2023-10-19T11:11:37;9.50;;;8.43;;
6531;SDS011;3299;42.004;24.868;2023-10-19T11:14:10;8.50;;;7.70;;
6531;SDS011;3299;42.004;24.868;2023-10-19T11:16:36;9.63;;;8.10;;
6531;SDS011;3299;42.004;24.868;2023-10-19T11:19:04;10.70;;;7.45;;
6531;SDS011;3299;42.004;24.868;2023-10-19T11:21:29;9.25;;;8.30;;
6531;SDS011;3299;42.004;24.868;2023-10-19T11:23:55;8.95;;;8.05;;
6531;SDS011;3299;42.004;24.868;2023-10-19T11:26:22;8.65;;;7.75;;
6531;SDS011;3299;42.004;24.868;2023-10-19T11:29:01;10.25;;;8.18;;
6531;SDS011;3299;42.004;24.868;2023-10-19T11:31:29;9.30;;;8.40;;
6531;SDS011;3299;42.004;24.868;2023-10-19T11:34:02;9.05;;;7.50;;
6531;SDS011;3299;42.004;24.868;2023-10-19T11:36:29;8.48;;;7.57;;
6531;SDS011;3299;42.004;24.868;2023-10-19T11:38:54;7.88;;;7.07;;
6531;SDS011;3299;42.004;24.868;2023-10-19T11:41:20;9.27;;;7.40;;
6531;SDS011;3299;42.004;24.868;2023-10-19T11:43:45;8.77;;;6.88;;
6531;SDS011;3299;42.004;24.868;2023-10-19T11:46:12;9.63;;;8.65;;
6531;SDS011;3299;42.004;24.868;2023-10-19T11:48:39;7.47;;;6.72;;
6531;SDS011;3299;42.004;24.868;2023-10-19T11:51:07;8.05;;;7.25;;
6531;SDS011;3299;42.004;24.868;2023-10-19T11:53:35;9.00;;;6.30;;
6531;SDS011;3299;42.004;24.868;2023-10-19T11:56:05;7.50;;;6.38;;
6531;SDS011;3299;42.004;24.868;2023-10-19T11:58:32;8.52;;;6.53;;
6531;SDS011;3299;42.004;24.868;2023-10-19T12:00:59;7.78;;;6.97;;
6531;SDS011;3299;42.004;24.868;2023-10-19T12:03:25;7.43;;;6.72;;
6531;SDS011;3299;42.004;24.868;2023-10-19T12:05:51;7.20;;;6.47;;
6531;SDS011;3299;42.004;24.868;2023-10-19T12:08:18;8.05;;;6.50;;
6531;SDS011;3299;42.004;24.868;2023-10-19T12:10:44;8.38;;;6.70;;
6531;SDS011;3299;42.004;24.868;2023-10-19T12:13:09;7.72;;;6.90;;
6531;SDS011;3299;42.004;24.868;2023-10-19T12:15:35;6.97;;;6.38;;
6531;SDS011;3299;42.004;24.868;2023-10-19T12:18:00;7.18;;;6.15;;
6531;SDS011;3299;42.004;24.868;2023-10-19T12:20:30;6.72;;;5.90;;
6531;SDS011;3299;42.004;24.868;2023-10-19T12:22:56;6.53;;;5.85;;
6531;SDS011;3299;42.004;24.868;2023-10-19T12:25:23;7.15;;;5.70;;
6531;SDS011;3299;42.004;24.868;2023-10-19T12:27:57;5.72;;;5.00;;
6531;SDS011;3299;42.004;24.868;2023-10-19T12:30:23;8.48;;;5.93;;
6531;SDS011;3299;42.004;24.868;2023-10-19T12:32:51;6.57;;;5.97;;
6531;SDS011;3299;42.004;24.868;2023-10-19T12:35:19;7.03;;;6.18;;
6531;SDS011;3299;42.004;24.868;2023-10-19T12:37:49;6.65;;;6.05;;
6531;SDS011;3299;42.004;24.868;2023-10-19T12:40:17;9.50;;;5.97;;
6531;SDS011;3299;42.004;24.868;2023-10-19T12:42:53;6.13;;;5.38;;
6531;SDS011;3299;42.004;24.868;2023-10-19T12:45:22;10.00;;;6.05;;
6531;SDS011;3299;42.004;24.868;2023-10-19T12:47:47;6.80;;;6.10;;
6531;SDS011;3299;42.004;24.868;2023-10-19T12:50:14;6.07;;;5.47;;
6531;SDS011;3299;42.004;24.868;2023-10-19T12:52:40;6.80;;;6.10;;
6531;SDS011;3299;42.004;24.868;2023-10-19T12:55:06;9.68;;;6.40;;
6531;SDS011;3299;42.004;24.868;2023-10-19T12:57:32;6.78;;;5.65;;
6531;SDS011;3299;42.004;24.868;2023-10-19T12:59:58;7.15;;;5.78;;
6531;SDS011;3299;42.004;24.868;2023-10-19T13:02:31;6.80;;;6.20;;
6531;SDS011;3299;42.004;24.868;2023-10-19T13:04:57;9.82;;;6.28;;
6531;SDS011;3299;42.004;24.868;2023-10-19T13:07:24;7.22;;;6.53;;
6531;SDS011;3299;42.004;24.868;2023-10-19T13:09:51;6.30;;;5.70;;
6531;SDS011;3299;42.004;24.868;2023-10-19T13:12:17;7.05;;;6.28;;
6531;SDS011;3299;42.004;24.868;2023-10-19T13:14:48;6.50;;;5.90;;
6531;SDS011;3299;42.004;24.868;2023-10-19T13:17:14;6.78;;;6.18;;
6531;SDS011;3299;42.004;24.868;2023-10-19T13:19:39;6.20;;;5.68;;
6531;SDS011;3299;42.004;24.868;2023-10-19T13:22:05;7.18;;;6.30;;
6531;SDS011;3299;42.004;24.868;2023-10-19T13:24:32;6.68;;;6.05;;
6531;SDS011;3299;42.004;24.868;2023-10-19T13:27:05;7.95;;;7.15;;
6531;SDS011;3299;42.004;24.868;2023-10-19T13:29:31;10.20;;;7.57;;
6531;SDS011;3299;42.004;24.868;2023-10-19T13:32:02;7.53;;;6.82;;
6531;SDS011;3299;42.004;24.868;2023-10-19T13:34:28;9.80;;;6.15;;
6531;SDS011;3299;42.004;24.868;2023-10-19T13:36:53;7.10;;;6.40;;
6531;SDS011;3299;42.004;24.868;2023-10-19T13:39:21;11.00;;;9.07;;
6531;SDS011;3299;42.004;24.868;2023-10-19T13:41:50;11.25;;;8.65;;
6531;SDS011;3299;42.004;24.868;2023-10-19T13:44:18;12.77;;;8.73;;
6531;SDS011;3299;42.004;24.868;2023-10-19T13:46:46;12.13;;;7.28;;
6531;SDS011;3299;42.004;24.868;2023-10-19T13:49:11;10.93;;;8.00;;
6531;SDS011;3299;42.004;24.868;2023-10-19T13:51:37;7.78;;;6.97;;
6531;SDS011;3299;42.004;24.868;2023-10-19T13:54:04;9.98;;;6.50;;
6531;SDS011;3299;42.004;24.868;2023-10-19T13:56:30;9.68;;;6.30;;
6531;SDS011;3299;42.004;24.868;2023-10-19T13:58:55;9.07;;;6.13;;
6531;SDS011;3299;42.004;24.868;2023-10-19T14:01:21;8.05;;;7.15;;
6531;SDS011;3299;42.004;24.868;2023-10-19T14:03:51;6.47;;;5.90;;
6531;SDS011;3299;42.004;24.868;2023-10-19T14:06:20;8.63;;;6.70;;
6531;SDS011;3299;42.004;24.868;2023-10-19T14:08:45;7.05;;;6.43;;
6531;SDS011;3299;42.004;24.868;2023-10-19T14:11:12;7.30;;;6.10;;
6531;SDS011;3299;42.004;24.868;2023-10-19T14:13:38;6.75;;;6.07;;
6531;SDS011;3299;42.004;24.868;2023-10-19T14:16:07;8.77;;;6.00;;
6531;SDS011;3299;42.004;24.868;2023-10-19T14:18:34;6.50;;;6.00;;
6531;SDS011;3299;42.004;24.868;2023-10-19T14:20:59;7.07;;;5.78;;
6531;SDS011;3299;42.004;24.868;2023-10-19T14:23:25;7.68;;;6.97;;
6531;SDS011;3299;42.004;24.868;2023-10-19T14:25:52;8.52;;;6.35;;
6531;SDS011;3299;42.004;24.868;2023-10-19T14:28:18;6.75;;;5.80;;
6531;SDS011;3299;42.004;24.868;2023-10-19T14:30:43;6.90;;;6.30;;
6531;SDS011;3299;42.004;24.868;2023-10-19T14:33:10;5.90;;;5.40;;
6531;SDS011;3299;42.004;24.868;2023-10-19T14:35:36;6.88;;;6.15;;
6531;SDS011;3299;42.004;24.868;2023-10-19T14:38:04;7.15;;;6.45;;
6531;SDS011;3299;42.004;24.868;2023-10-19T14:40:31;9.95;;;9.05;;
6531;SDS011;3299;42.004;24.868;2023-10-19T14:42:57;6.50;;;6.00;;
6531;SDS011;3299;42.004;24.868;2023-10-19T14:45:24;6.40;;;5.80;;
6531;SDS011;3299;42.004;24.868;2023-10-19T14:47:57;6.45;;;5.95;;
6531;SDS011;3299;42.004;24.868;2023-10-19T14:50:23;7.28;;;6.57;;
6531;SDS011;3299;42.004;24.868;2023-10-19T14:52:50;6.88;;;5.72;;
6531;SDS011;3299;42.004;24.868;2023-10-19T14:55:17;10.60;;;6.55;;
6531;SDS011;3299;42.004;24.868;2023-10-19T14:57:43;6.90;;;5.85;;
6531;SDS011;3299;42.004;24.868;2023-10-19T15:00:11;6.75;;;6.18;;
6531;SDS011;3299;42.004;24.868;2023-10-19T15:02:50;7.05;;;6.20;;
6531;SDS011;3299;42.004;24.868;2023-10-19T15:05:16;5.68;;;5.18;;
6531;SDS011;3299;42.004;24.868;2023-10-19T15:07:43;6.30;;;5.80;;
6531;SDS011;3299;42.004;24.868;2023-10-19T15:10:10;6.88;;;5.97;;
6531;SDS011;3299;42.004;24.868;2023-10-19T15:12:39;7.03;;;5.75;;
6531;SDS011;3299;42.004;24.868;2023-10-19T15:15:06;7.85;;;6.05;;
6531;SDS011;3299;42.004;24.868;2023-10-19T15:17:33;7.15;;;6.18;;
6531;SDS011;3299;42.004;24.868;2023-10-19T15:19:59;6.45;;;5.75;;